KPSC/PSC METAR and TAF weather

Enter ICAO airport designator
Station Type Date Time Source
KPSC METAR 2020/01/21 09:10 UTC NOAA

KPSC 210910Z AUTO 35003KT 1/4SM FZFG VV002 M01/M02 A2988 RMK AO2 I1000 T10111022 RVRNO


Station Type Date Time Source
KPSC Decoded METAR 2020/01/21 09:10 UTC NOAA

TRI-CITIES AIRPORT, WA, United States (KPSC) 46-16N 119-07W 121M
Jan 21, 2020 - 04:10 AM EST / 2020.01.21 0910 UTC
Wind: from the N (350 degrees) at 3 MPH (3 KT):0
Visibility: 1/4 mile(s):0
Sky conditions: obscured
Weather: freezing fog
Temperature: 30.0 F (-1.1 C)
Dew Point: 28.0 F (-2.2 C)
Relative Humidity: 92%
Pressure (altimeter): 29.88 in. Hg (1011 hPa)
ob: KPSC 210910Z AUTO 35003KT 1/4SM FZFG VV002 M01/M02 A2988 RMK AO2 I1000 T10111022 RVRNO
cycle: 9

Station Type Date Time Source
KPSC TAF 2020/01/21 09:18 UTC NOAA

TAF
AMD KPSC 210917Z 2109/2206 VRB03KT 5SM BR FEW004 BKN100
TEMPO 2109/2112 1/4SM FZFG BKN002
FM211200 VRB03KT 3SM BR SCT004 OVC020
FM211800 VRB05KT P6SM BKN050
FM220300 23007KT P6SM SCT100 BKN250

Example: see airport list